Time;durP1;ratioP1;P1;durP2;ratioP2;P2;SDS_P1;SDS_P2;PMS_P1;PMS_P2;Temp;Humidity;BMP_temperature;BMP_pressure;BME280_temperature;BME280_humidity;BME280_pressure;Samples;Min_cycle;Max_cycle;Signal;HPM_P1;HPM_P2
2021/06/07 00:02:11;;;;;;;10.53;5.47;;;;;;;13.46;100.00;99688.56;1631258;88;21005;-72
2021/06/07 00:04:38;;;;;;;7.12;4.65;;;;;;;13.43;100.00;99684.05;1631619;88;21017;-71
2021/06/07 00:07:07;;;;;;;9.70;4.92;;;;;;;13.42;100.00;99682.36;1631597;88;21088;-72
2021/06/07 00:09:36;;;;;;;10.90;5.42;;;;;;;13.40;100.00;99676.30;1631466;88;21147;-72
2021/06/07 00:12:10;;;;;;;11.28;5.53;;;;;;;13.40;100.00;99685.80;1631467;88;21017;-72
2021/06/07 00:14:39;;;;;;;8.95;5.40;;;;;;;13.38;100.00;99689.23;1631693;88;21072;-73
2021/06/07 00:17:06;;;;;;;8.83;4.75;;;;;;;13.38;100.00;99679.20;1659815;86;20997;-72
2021/06/07 00:19:36;;;;;;;6.95;4.40;;;;;;;13.39;100.00;99689.57;1677239;85;21081;-72
2021/06/07 00:22:03;;;;;;;9.05;4.72;;;;;;;13.40;100.00;99691.23;1677317;85;21088;-73
2021/06/07 00:24:30;;;;;;;10.82;5.05;;;;;;;13.40;100.00;99690.73;1675449;85;21582;-73
2021/06/07 00:26:57;;;;;;;10.72;4.80;;;;;;;13.42;100.00;99696.80;1673088;86;21033;-72
2021/06/07 00:29:23;;;;;;;10.05;5.12;;;;;;;13.43;100.00;99694.91;1681424;85;21504;-72
2021/06/07 00:31:52;;;;;;;10.32;4.62;;;;;;;13.43;100.00;99693.03;1690153;84;21050;-72
2021/06/07 00:34:18;;;;;;;10.80;4.72;;;;;;;13.41;100.00;99691.03;1705247;83;21106;-72
2021/06/07 00:36:47;;;;;;;10.63;5.45;;;;;;;13.41;100.00;99693.75;1704877;83;21042;-72
2021/06/07 00:39:15;;;;;;;7.83;5.40;;;;;;;13.41;100.00;99696.47;1705192;83;21037;-73
2021/06/07 00:41:45;;;;;;;8.43;5.10;;;;;;;13.44;100.00;99693.89;1704877;84;21002;-72
2021/06/07 00:44:19;;;;;;;9.93;4.67;;;;;;;13.44;100.00;99689.29;1705151;84;21054;-72
2021/06/07 00:46:46;;;;;;;6.65;4.80;;;;;;;13.47;100.00;99696.19;1705311;83;21556;-73
2021/06/07 00:49:13;;;;;;;6.50;5.05;;;;;;;13.50;100.00;99696.33;1705250;83;21041;-73
2021/06/07 00:51:42;;;;;;;9.85;5.08;;;;;;;13.51;100.00;99701.56;1706622;83;21026;-72
2021/06/07 00:54:09;;;;;;;9.18;4.85;;;;;;;13.51;100.00;99692.55;1706996;84;21026;-72
2021/06/07 00:56:36;;;;;;;9.15;4.85;;;;;;;13.48;100.00;99689.20;1706451;84;21508;-73
2021/06/07 00:59:04;;;;;;;9.95;5.17;;;;;;;13.50;100.00;99687.65;1711459;84;21047;-72
2021/06/07 01:01:33;;;;;;;10.82;5.15;;;;;;;13.52;100.00;99692.89;1665490;85;21710;-72
2021/06/07 01:04:00;;;;;;;8.15;5.28;;;;;;;13.52;100.00;99697.80;1698963;84;21055;-72
2021/06/07 01:06:28;;;;;;;11.95;5.05;;;;;;;13.52;100.00;99700.51;1698966;84;21536;-73
2021/06/07 01:08:55;;;;;;;13.80;8.28;;;;;;;13.53;100.00;99698.13;1699234;84;21027;-72
2021/06/07 01:11:22;;;;;;;20.52;15.98;;;;;;;13.53;100.00;99688.62;1665945;86;21520;-72
2021/06/07 01:13:51;;;;;;;19.85;12.10;;;;;;;13.54;100.00;99693.00;1711677;84;21090;-72
2021/06/07 01:16:19;;;;;;;19.52;12.82;;;;;;;13.56;100.00;99694.16;1703330;84;21060;-72
2021/06/07 01:18:47;;;;;;;19.87;12.65;;;;;;;13.55;100.00;99694.69;1638644;88;21060;-72
2021/06/07 01:21:22;;;;;;;15.28;9.35;;;;;;;13.56;100.00;99700.42;1671192;86;21056;-72
2021/06/07 01:23:49;;;;;;;9.80;6.47;;;;;;;13.57;100.00;99695.85;1683555;85;21099;-73
2021/06/07 01:26:18;;;;;;;11.68;6.40;;;;;;;13.56;100.00;99692.27;1692714;85;20982;-71
2021/06/07 01:28:45;;;;;;;11.50;5.65;;;;;;;13.55;100.00;99697.41;1692642;85;21054;-72
2021/06/07 01:31:14;;;;;;;9.50;5.33;;;;;;;13.55;100.00;99691.97;1692525;85;21066;-71
2021/06/07 01:33:47;;;;;;;11.30;4.67;;;;;;;13.56;100.00;99687.37;1692353;83;21045;-71
2021/06/07 01:36:14;;;;;;;;;;;;;;;13.55;100.00;99686.54;1694917;85;21055;-71
2021/06/07 01:38:40;;;;;;;9.30;4.92;;;;;;;13.56;100.00;99689.55;1692184;85;20179;-71
2021/06/07 01:41:10;;;;;;;10.20;5.22;;;;;;;13.54;100.00;99692.16;1692510;85;21551;-71
2021/06/07 01:43:37;;;;;;;8.45;4.65;;;;;;;13.51;100.00;99686.63;1692545;85;21025;-71
2021/06/07 01:46:04;;;;;;;13.20;5.05;;;;;;;13.51;100.00;99689.34;1692354;85;21085;-72
2021/06/07 01:48:31;;;;;;;13.62;5.37;;;;;;;13.53;100.00;99682.33;1691917;85;21633;-71
2021/06/07 01:50:59;;;;;;;10.75;5.17;;;;;;;13.53;100.00;99684.55;1692281;85;21053;-72
2021/06/07 01:53:27;;;;;;;11.33;5.45;;;;;;;13.55;100.00;99689.25;1692311;85;21018;-71
2021/06/07 01:55:58;;;;;;;8.38;5.10;;;;;;;13.56;100.00;99679.22;1692242;85;21546;-71
2021/06/07 01:58:25;;;;;;;12.85;5.05;;;;;;;13.57;100.00;99684.98;1698604;84;20990;-71
2021/06/07 02:01:05;;;;;;;10.20;5.05;;;;;;;13.58;100.00;99683.43;1665134;86;21046;-71
2021/06/07 02:03:32;;;;;;;8.45;4.95;;;;;;;13.61;100.00;99683.54;1692736;85;21023;-72
2021/06/07 02:06:00;;;;;;;9.75;5.25;;;;;;;13.64;100.00;99680.43;1693071;85;21102;-72
2021/06/07 02:08:31;;;;;;;8.13;5.22;;;;;;;13.64;100.00;99681.27;1670011;85;21082;-71
2021/06/07 02:11:08;;;;;;;7.25;4.90;;;;;;;13.64;100.00;99680.43;1693092;85;21066;-72
2021/06/07 02:13:35;;;;;;;9.73;4.65;;;;;;;13.65;100.00;99679.38;1692677;85;21054;-72
2021/06/07 02:16:06;;;;;;;9.83;5.30;;;;;;;13.66;100.00;99679.70;1692688;85;20995;-71
2021/06/07 02:18:36;;;;;;;7.87;5.20;;;;;;;13.67;100.00;99676.80;1663331;86;21536;-70
2021/06/07 02:21:05;;;;;;;13.55;5.30;;;;;;;13.68;100.00;99678.45;1623393;88;21565;-72
2021/06/07 02:23:32;;;;;;;8.68;5.20;;;;;;;13.70;100.00;99680.14;1562654;92;21607;-72
2021/06/07 02:25:58;;;;;;;9.33;5.00;;;;;;;13.71;100.00;99681.83;1594281;89;21102;-71
2021/06/07 02:28:25;;;;;;;7.60;4.47;;;;;;;13.74;100.00;99685.48;1583165;91;21500;-71
2021/06/07 02:30:52;;;;;;;12.15;5.15;;;;;;;13.75;100.00;99681.74;1582671;91;21612;-73
2021/06/07 02:33:19;;;;;;;8.58;4.97;;;;;;;13.75;100.00;99689.89;1583236;91;21578;-70
2021/06/07 02:35:46;;;;;;;15.43;6.55;;;;;;;13.74;100.00;99689.06;1582948;91;21126;-71
2021/06/07 02:38:13;;;;;;;10.93;6.10;;;;;;;13.72;100.00;99685.69;1583026;91;21086;-70
2021/06/07 02:40:40;;;;;;;14.18;7.20;;;;;;;13.71;100.00;99687.27;1583046;90;21054;-71
2021/06/07 02:43:07;;;;;;;12.93;6.62;;;;;;;13.71;100.00;99690.81;1583267;91;21097;-71
2021/06/07 02:45:34;;;;;;;13.10;6.83;;;;;;;13.74;100.00;99697.71;1583123;91;21568;-71
2021/06/07 02:48:01;;;;;;;13.85;6.80;;;;;;;13.74;100.00;99695.00;1583013;91;21659;-71
2021/06/07 02:50:34;;;;;;;11.28;6.28;;;;;;;13.76;100.00;99699.20;1583037;91;21636;-72
2021/06/07 02:53:00;;;;;;;11.38;5.30;;;;;;;13.79;100.00;99695.23;1573177;90;21096;-72
2021/06/07 02:55:35;;;;;;;10.43;5.67;;;;;;;13.82;100.00;99705.72;1593954;88;21103;-70
2021/06/07 02:58:02;;;;;;;;;;;;;;;13.85;100.00;99702.60;1602081;90;21623;-71
2021/06/07 03:00:46;;;;;;;11.43;5.87;;;;;;;13.89;100.00;99707.95;1599795;90;20112;-70
2021/06/07 03:03:13;;;;;;;12.70;5.87;;;;;;;13.94;100.00;99701.92;1551677;92;21539;-71
2021/06/07 03:05:40;;;;;;;9.33;5.42;;;;;;;13.99;100.00;99701.63;1551628;92;21098;-71
2021/06/07 03:08:10;;;;;;;11.53;5.15;;;;;;;14.02;100.00;99699.88;1551696;92;21053;-71
2021/06/07 03:10:37;;;;;;;10.35;5.08;;;;;;;14.01;100.00;99698.19;1551577;92;21129;-71
2021/06/07 03:13:04;;;;;;;10.45;5.25;;;;;;;14.02;100.00;99686.78;1551733;92;21196;-71
2021/06/07 03:15:31;;;;;;;8.70;5.12;;;;;;;14.04;100.00;99684.20;1541455;92;21108;-72
2021/06/07 03:17:58;;;;;;;9.28;5.08;;;;;;;14.05;100.00;99685.03;1532377;92;21030;-70
2021/06/07 03:20:29;;;;;;;11.80;4.80;;;;;;;14.09;100.00;99683.57;1561437;91;21140;-71
2021/06/07 03:22:58;;;;;;;11.25;5.55;;;;;;;14.14;100.00;99681.61;1517982;95;21076;-70
2021/06/07 03:25:26;;;;;;;7.42;4.85;;;;;;;14.14;100.00;99675.64;1521498;90;21026;-71
2021/06/07 03:27:53;;;;;;;8.45;5.40;;;;;;;14.18;100.00;99682.88;1590932;90;21089;-72
2021/06/07 03:30:20;;;;;;;8.58;4.67;;;;;;;14.23;100.00;99682.58;1590627;90;21547;-70
2021/06/07 03:32:47;;;;;;;9.08;4.83;;;;;;;14.32;100.00;99691.92;1590707;90;21684;-71
2021/06/07 03:35:16;;;;;;;8.23;5.25;;;;;;;14.38;100.00;99686.52;1590773;90;21125;-71
2021/06/07 03:37:43;;;;;;;8.63;5.12;;;;;;;14.42;100.00;99686.41;1590846;90;21530;-70
2021/06/07 03:40:14;;;;;;;8.10;5.03;;;;;;;14.47;100.00;99684.98;1590719;90;21244;-70
2021/06/07 03:42:41;;;;;;;8.60;5.10;;;;;;;14.51;100.00;99686.23;1590739;90;21049;-70
2021/06/07 03:45:10;;;;;;;10.23;5.35;;;;;;;14.58;100.00;99683.04;1590646;90;21085;-71
2021/06/07 03:47:37;;;;;;;11.20;5.55;;;;;;;14.61;100.00;99682.64;1590824;90;21065;-71
2021/06/07 03:50:06;;;;;;;12.03;5.35;;;;;;;14.66;100.00;99680.14;1590477;90;21108;-71
2021/06/07 03:52:33;;;;;;;11.22;5.22;;;;;;;14.68;100.00;99678.05;1590856;90;21587;-72
2021/06/07 03:55:00;;;;;;;9.80;5.15;;;;;;;14.75;100.00;99673.95;1588546;90;21067;-71
2021/06/07 03:57:27;;;;;;;8.78;4.97;;;;;;;14.75;100.00;99673.95;1635961;87;21041;-71
2021/06/07 03:59:54;;;;;;;9.35;5.20;;;;;;;14.78;100.00;99674.90;1727690;81;21612;-72
2021/06/07 04:02:21;;;;;;;10.00;5.35;;;;;;;14.84;100.00;99675.45;1744573;82;21015;-72
2021/06/07 04:04:48;;;;;;;10.32;5.05;;;;;;;14.89;100.00;99672.08;1693934;84;21054;-72
2021/06/07 04:07:15;;;;;;;9.58;5.05;;;;;;;14.88;100.00;99670.42;1695332;85;21578;-72
2021/06/07 04:09:42;;;;;;;11.60;5.85;;;;;;;14.90;100.00;99670.52;1695323;85;21490;-72
2021/06/07 04:12:10;;;;;;;10.68;5.62;;;;;;;14.98;100.00;99668.13;1695856;85;21551;-72
2021/06/07 04:14:37;;;;;;;9.80;4.83;;;;;;;15.07;100.00;99666.01;1695918;85;21508;-72
2021/06/07 04:17:04;;;;;;;11.55;5.42;;;;;;;15.19;100.00;99671.14;1685625;85;21082;-73
2021/06/07 04:19:31;;;;;;;10.70;5.67;;;;;;;15.29;100.00;99675.64;1685228;85;21000;-73
2021/06/07 04:21:57;;;;;;;9.78;5.80;;;;;;;15.44;100.00;99660.45;1685270;85;21070;-72
2021/06/07 04:24:24;;;;;;;12.00;6.35;;;;;;;15.44;100.00;99660.45;1685261;85;21003;-72
2021/06/07 04:26:52;;;;;;;9.95;5.72;;;;;;;15.55;100.00;99665.23;1685097;85;21039;-71
2021/06/07 04:29:20;;;;;;;21.52;7.08;;;;;;;15.66;100.00;99664.28;1685325;85;21055;-70
2021/06/07 04:31:47;;;;;;;15.00;6.62;;;;;;;15.71;100.00;99663.12;1685277;85;21035;-73
2021/06/07 04:34:14;;;;;;;10.23;6.17;;;;;;;15.74;100.00;99664.92;1685328;85;21046;-73
2021/06/07 04:36:41;;;;;;;16.10;7.30;;;;;;;15.77;100.00;99660.91;1685306;85;21536;-71
2021/06/07 04:39:09;;;;;;;12.80;6.25;;;;;;;15.80;100.00;99659.67;1685360;85;21003;-71
2021/06/07 04:41:36;;;;;;;14.75;6.97;;;;;;;15.81;100.00;99660.82;1686034;85;21043;-72
2021/06/07 04:44:03;;;;;;;20.00;7.05;;;;;;;15.81;100.00;99663.55;1687431;85;21067;-70
2021/06/07 04:46:30;;;;;;;14.93;7.22;;;;;;;15.86;100.00;99665.61;1685987;85;21023;-72
2021/06/07 04:48:57;;;;;;;13.43;7.05;;;;;;;15.92;100.00;99657.41;1684346;85;21020;-72
2021/06/07 04:51:23;;;;;;;12.75;6.80;;;;;;;16.00;100.00;99659.05;1684685;85;21046;-72
2021/06/07 04:53:50;;;;;;;17.98;6.75;;;;;;;16.04;100.00;99664.41;1685199;84;21087;-72
2021/06/07 04:56:17;;;;;;;10.48;6.22;;;;;;;16.11;100.00;99666.58;1704095;83;21050;-72
2021/06/07 04:58:44;;;;;;;13.80;6.20;;;;;;;16.24;100.00;99662.11;1728777;83;21106;-72
2021/06/07 05:01:12;;;;;;;15.70;6.10;;;;;;;16.33;100.00;99660.27;1729078;83;21055;-72
2021/06/07 05:03:39;;;;;;;13.30;6.25;;;;;;;16.37;100.00;99657.11;1729077;83;21044;-72
2021/06/07 05:06:06;;;;;;;15.30;7.28;;;;;;;16.45;100.00;99652.73;1728712;83;21004;-72
2021/06/07 05:08:33;;;;;;;12.00;6.22;;;;;;;16.58;100.00;99654.03;1728907;82;21031;-72
2021/06/07 05:11:01;;;;;;;14.00;6.30;;;;;;;16.75;100.00;99654.86;1728929;83;21071;-71
2021/06/07 05:13:28;;;;;;;17.15;6.95;;;;;;;16.89;100.00;99660.05;1713564;83;21010;-71
2021/06/07 05:15:55;;;;;;;26.73;15.53;;;;;;;17.10;100.00;99653.88;1713351;83;21659;-71
2021/06/07 05:18:21;;;;;;;24.52;12.37;;;;;;;17.33;100.00;99653.25;1725689;82;20955;-71
2021/06/07 05:20:48;;;;;;;46.42;36.50;;;;;;;17.43;100.00;99652.75;1753023;81;20966;-71
2021/06/07 05:23:16;;;;;;;86.00;77.17;;;;;;;17.55;100.00;99652.31;1756484;81;21093;-71
2021/06/07 05:25:43;;;;;;;21.10;12.28;;;;;;;17.65;100.00;99649.90;1752771;81;21479;-71
2021/06/07 05:28:12;;;;;;;17.97;8.10;;;;;;;17.70;100.00;99650.56;1747520;82;21069;-71
2021/06/07 05:30:41;;;;;;;25.08;14.87;;;;;;;17.75;100.00;99648.53;1746967;82;21484;-68
2021/06/07 05:33:08;;;;;;;26.50;16.12;;;;;;;17.84;100.00;99638.95;1747139;82;21042;-71
2021/06/07 05:35:40;;;;;;;63.38;56.53;;;;;;;17.93;100.00;99641.70;1755678;81;20994;-71
2021/06/07 05:38:08;;;;;;;22.95;12.03;;;;;;;17.99;100.00;99639.44;1747248;81;21464;-72
2021/06/07 05:40:36;;;;;;;18.02;9.78;;;;;;;18.06;100.00;99644.83;1751300;82;21500;-71
2021/06/07 05:43:03;;;;;;;20.23;10.80;;;;;;;18.10;100.00;99644.66;1749994;82;20995;-71
2021/06/07 05:45:31;;;;;;;50.80;43.20;;;;;;;18.24;100.00;99648.06;1725090;83;20999;-72
2021/06/07 05:47:59;;;;;;;26.05;15.32;;;;;;;18.34;100.00;99645.62;1724027;82;21027;-72
2021/06/07 05:50:29;;;;;;;19.32;10.68;;;;;;;18.33;100.00;99643.94;1703863;83;21081;-71
2021/06/07 05:52:56;;;;;;;22.30;11.05;;;;;;;18.34;100.00;99640.14;1701635;84;21499;-71
